Time,TemperatureF,DewpointF,PressureIn,WindDirection,WindDirectionDegrees,WindSpeedMPH,WindSpeedGustMPH,Humidity,HourlyPrecipIn,Conditions,Clouds,dailyrainin,SolarRadiationWatts/m^2,SoftwareType,DateUTC
2016-02-10 00:00:00,45.5,35.9,30.29,NW,319,0.0,0.1,69,0.00,CLR,SCT,0.00,0.0,WeatherDisplay:10.37,2016-02-10 08:00:00,
2016-02-10 00:05:00,45.5,35.9,30.29,NW,319,1.1,1.1,69,0.00,CLR,SCT,0.00,0.0,WeatherDisplay:10.37,2016-02-10 08:05:00,
2016-02-10 00:10:00,45.4,35.5,30.30,NW,319,0.0,0.0,68,0.00,CLR,SCT,0.00,0.0,WeatherDisplay:10.37,2016-02-10 08:10:00,
2016-02-10 00:15:00,45.4,35.1,30.29,NW,319,0.0,0.0,67,0.00,CLR,SCT,0.00,0.0,WeatherDisplay:10.37,2016-02-10 08:15:00,
2016-02-10 00:20:00,45.3,34.6,30.30,NW,319,2.3,2.3,66,0.00,CLR,SCT,0.00,0.0,WeatherDisplay:10.37,2016-02-10 08:20:00,
2016-02-10 00:25:00,45.2,34.9,30.30,NW,319,1.1,1.1,67,0.00,CLR,SCT,0.00,0.0,WeatherDisplay:10.37,2016-02-10 08:25:00,
2016-02-10 00:31:00,45.1,34.8,30.30,NW,319,1.1,0.0,67,0.00,CLR,SCT,0.00,0.0,WeatherDisplay:10.37,2016-02-10 08:31:00,
2016-02-10 00:35:00,45.1,35.2,30.31,NW,319,0.0,0.0,68,0.00,CLR,SCT,0.00,0.0,WeatherDisplay:10.37,2016-02-10 08:35:00,
2016-02-10 00:41:00,45.0,34.3,30.31,NW,319,1.0,0.0,66,0.00,CLR,SCT,0.00,0.0,WeatherDisplay:10.37,2016-02-10 08:41:00,
2016-02-10 00:46:00,44.8,34.1,30.32,NW,319,0.0,0.0,66,0.00,CLR,SCT,0.00,0.0,WeatherDisplay:10.37,2016-02-10 08:46:00,
2016-02-10 00:51:00,44.7,34.8,30.32,NW,319,1.1,1.1,68,0.00,CLR,SCT,0.00,0.0,WeatherDisplay:10.37,2016-02-10 08:51:00,
2016-02-10 00:56:00,44.6,33.9,30.32,NW,319,1.1,1.1,66,0.00,CLR,SCT,0.00,0.0,WeatherDisplay:10.37,2016-02-10 08:56:00,
2016-02-10 01:01:00,44.4,34.9,30.32,NW,321,1.1,1.1,69,0.00,CLR,SCT,0.00,0.0,WeatherDisplay:10.37,2016-02-10 09:01:00,
2016-02-10 01:06:00,44.3,34.4,30.32,NW,321,1.1,1.1,68,0.00,CLR,SCT,0.00,0.0,WeatherDisplay:10.37,2016-02-10 09:06:00,
2016-02-10 01:11:00,44.1,34.2,30.31,NW,321,0.0,0.4,68,0.00,CLR,SCT,0.00,0.0,WeatherDisplay:10.37,2016-02-10 09:11:00,
2016-02-10 01:16:00,44.0,34.5,30.32,NW,321,0.0,0.0,69,0.00,CLR,SCT,0.00,0.0,WeatherDisplay:10.37,2016-02-10 09:16:00,
2016-02-10 01:21:00,44.0,34.1,30.32,NW,321,1.1,1.1,68,0.00,CLR,SCT,0.00,0.0,WeatherDisplay:10.37,2016-02-10 09:21:00,
2016-02-10 01:26:00,43.9,33.6,30.31,NW,321,1.1,0.0,67,0.00,CLR,SCT,0.00,0.0,WeatherDisplay:10.37,2016-02-10 09:26:00,
2016-02-10 01:31:00,43.8,32.8,30.31,NW,321,0.0,0.0,65,0.00,CLR,SCT,0.00,0.0,WeatherDisplay:10.37,2016-02-10 09:31:00,
2016-02-10 01:36:00,43.8,33.2,30.31,NW,321,0.0,0.0,66,0.00,CLR,SCT,0.00,0.0,WeatherDisplay:10.37,2016-02-10 09:36:00,
2016-02-10 01:46:00,43.7,33.1,30.32,NW,321,1.1,1.1,66,0.00,CLR,SCT,0.00,0.0,WeatherDisplay:10.37,2016-02-10 09:46:00,
2016-02-10 01:51:00,43.6,33.0,30.32,NE,46,2.3,2.3,66,0.00,CLR,SCT,0.00,0.0,WeatherDisplay:10.37,2016-02-10 09:51:00,
2016-02-10 01:56:00,43.6,33.0,30.32,NE,46,0.0,0.0,66,0.00,CLR,SCT,0.00,0.0,WeatherDisplay:10.37,2016-02-10 09:56:00,
2016-02-10 02:01:00,43.5,33.3,30.32,NE,46,1.1,0.0,67,0.00,CLR,SCT,0.00,0.0,WeatherDisplay:10.37,2016-02-10 10:01:00,
2016-02-10 02:06:00,43.4,32.8,30.32,NE,46,0.0,0.0,66,0.00,CLR,SCT,0.00,0.0,WeatherDisplay:10.37,2016-02-10 10:06:00,
2016-02-10 02:11:00,43.2,32.6,30.33,NE,46,0.0,0.0,66,0.00,CLR,SCT,0.00,0.0,WeatherDisplay:10.37,2016-02-10 10:11:00,
2016-02-10 02:16:00,43.1,32.9,30.33,NE,46,0.0,0.0,67,0.00,CLR,SCT,0.00,0.0,WeatherDisplay:10.37,2016-02-10 10:16:00,
2016-02-10 02:21:00,43.1,33.3,30.33,NE,46,0.0,0.0,68,0.00,CLR,SCT,0.00,0.0,WeatherDisplay:10.37,2016-02-10 10:21:00,
2016-02-10 02:26:00,43.0,32.8,30.33,NE,46,0.0,0.0,67,0.00,CLR,SCT,0.00,0.0,WeatherDisplay:10.37,2016-02-10 10:26:00,
2016-02-10 02:31:00,42.9,33.4,30.33,NE,46,0.0,0.0,69,0.00,CLR,SCT,0.00,0.0,WeatherDisplay:10.37,2016-02-10 10:31:00,
2016-02-10 02:36:00,42.9,32.7,30.32,NE,46,1.1,1.1,67,0.00,CLR,SCT,0.00,0.0,WeatherDisplay:10.37,2016-02-10 10:36:00,
2016-02-10 02:41:00,42.8,33.0,30.32,NE,46,0.0,0.0,68,0.00,CLR,SCT,0.00,0.0,WeatherDisplay:10.37,2016-02-10 10:41:00,
2016-02-10 02:46:00,42.8,32.2,30.32,NE,46,1.1,1.1,66,0.00,CLR,SCT,0.00,0.0,WeatherDisplay:10.37,2016-02-10 10:46:00,
2016-02-10 02:51:00,42.7,32.1,30.32,NE,46,1.1,1.1,66,0.00,CLR,SCT,0.00,0.0,WeatherDisplay:10.37,2016-02-10 10:51:00,
2016-02-10 02:56:00,42.8,32.6,30.32,NE,46,0.0,0.0,67,0.00,CLR,SCT,0.00,0.0,WeatherDisplay:10.37,2016-02-10 10:56:00,
2016-02-10 03:01:00,42.8,32.6,30.32,NE,46,1.1,1.1,67,0.00,CLR,SCT,0.00,0.0,WeatherDisplay:10.37,2016-02-10 11:01:00,
2016-02-10 03:06:00,42.7,32.1,30.31,NNE,15,1.1,1.1,66,0.00,CLR,SCT,0.00,0.0,WeatherDisplay:10.37,2016-02-10 11:06:00,
2016-02-10 03:11:00,42.7,32.1,30.31,NW,306,2.3,2.3,66,0.00,CLR,SCT,0.00,0.0,WeatherDisplay:10.37,2016-02-10 11:11:00,
2016-02-10 03:16:00,42.5,31.9,30.31,NW,306,1.1,1.1,66,0.00,CLR,SCT,0.00,0.0,WeatherDisplay:10.37,2016-02-10 11:16:00,
2016-02-10 03:21:00,42.3,31.4,30.31,NW,324,3.5,3.5,65,0.00,CLR,SCT,0.00,0.0,WeatherDisplay:10.37,2016-02-10 11:21:00,
2016-02-10 03:26:00,42.2,32.0,30.31,NW,324,3.5,3.5,67,0.00,CLR,SCT,0.00,0.0,WeatherDisplay:10.37,2016-02-10 11:26:00,
2016-02-10 03:31:00,42.0,31.5,30.30,NW,317,4.0,4.0,66,0.00,CLR,SCT,0.00,0.0,WeatherDisplay:10.37,2016-02-10 11:31:00,
2016-02-10 03:36:00,41.8,31.6,30.30,NW,325,3.5,3.5,67,0.00,CLR,SCT,0.00,0.0,WeatherDisplay:10.37,2016-02-10 11:36:00,
2016-02-10 03:41:00,41.7,31.9,30.30,NNW,330,3.0,3.0,68,0.00,CLR,SCT,0.00,0.0,WeatherDisplay:10.37,2016-02-10 11:41:00,
2016-02-10 03:46:00,41.5,32.1,30.30,NNW,330,3.5,3.5,69,0.00,CLR,SCT,0.00,0.0,WeatherDisplay:10.37,2016-02-10 11:46:00,
2016-02-10 03:51:00,41.3,31.9,30.29,NNW,330,2.3,2.3,69,0.00,CLR,SCT,0.00,0.0,WeatherDisplay:10.37,2016-02-10 11:51:00,
2016-02-10 03:56:00,41.2,32.5,30.30,NNW,330,3.5,3.5,71,0.00,CLR,SCT,0.00,0.0,WeatherDisplay:10.37,2016-02-10 11:56:00,
2016-02-10 04:01:00,41.1,32.4,30.30,NNW,330,1.1,1.1,71,0.00,CLR,SCT,0.00,0.0,WeatherDisplay:10.37,2016-02-10 12:01:00,
2016-02-10 04:06:00,41.2,32.5,30.30,NNW,330,3.5,3.5,71,0.00,CLR,SCT,0.00,0.0,WeatherDisplay:10.37,2016-02-10 12:06:00,
2016-02-10 04:11:00,41.3,31.9,30.30,NNW,330,1.1,0.0,69,0.00,CLR,SCT,0.00,0.0,WeatherDisplay:10.37,2016-02-10 12:11:00,
2016-02-10 04:16:00,41.3,32.2,30.31,NNW,330,0.0,0.0,70,0.00,CLR,SCT,0.00,0.0,WeatherDisplay:10.37,2016-02-10 12:16:00,
2016-02-10 04:21:00,41.4,32.3,30.31,NNW,336,1.1,1.1,70,0.00,CLR,SCT,0.00,0.0,WeatherDisplay:10.37,2016-02-10 12:21:00,
2016-02-10 04:26:00,41.5,32.4,30.30,NNW,336,1.1,1.1,70,0.00,CLR,SCT,0.00,0.0,WeatherDisplay:10.37,2016-02-10 12:26:00,
2016-02-10 04:31:00,41.5,32.1,30.30,NNW,336,1.1,0.0,69,0.00,CLR,SCT,0.00,0.0,WeatherDisplay:10.37,2016-02-10 12:31:00,
2016-02-10 04:36:00,41.6,32.2,30.30,NNW,338,2.3,2.3,69,0.00,CLR,SCT,0.00,0.0,WeatherDisplay:10.37,2016-02-10 12:36:00,
2016-02-10 04:41:00,41.5,31.7,30.30,NNW,338,1.1,1.1,68,0.00,CLR,SCT,0.00,0.0,WeatherDisplay:10.37,2016-02-10 12:41:00,
2016-02-10 04:46:00,41.5,31.7,30.31,NNW,338,1.1,1.1,68,0.00,CLR,SCT,0.00,0.0,WeatherDisplay:10.37,2016-02-10 12:46:00,
2016-02-10 04:51:00,41.5,31.7,30.31,NNW,338,1.1,1.1,68,0.00,CLR,SCT,0.00,0.0,WeatherDisplay:10.37,2016-02-10 12:51:00,
2016-02-10 04:56:00,41.5,31.4,30.31,NNW,338,0.0,0.0,67,0.00,CLR,SCT,0.00,0.0,WeatherDisplay:10.37,2016-02-10 12:56:00,
2016-02-10 05:01:00,41.5,31.7,30.31,NNW,338,1.1,1.1,68,0.00,CLR,SCT,0.00,0.0,WeatherDisplay:10.37,2016-02-10 13:01:00,
2016-02-10 05:06:00,41.5,32.1,30.31,NNW,338,1.1,1.1,69,0.00,CLR,SCT,0.00,0.0,WeatherDisplay:10.37,2016-02-10 13:06:00,
2016-02-10 05:11:00,41.5,32.1,30.31,NNW,338,0.0,0.0,69,0.00,CLR,SCT,0.00,0.0,WeatherDisplay:10.37,2016-02-10 13:11:00,
2016-02-10 05:16:00,41.5,32.1,30.32,NNW,338,1.1,1.1,69,0.00,CLR,SCT,0.00,0.0,WeatherDisplay:10.37,2016-02-10 13:16:00,
2016-02-10 05:21:00,41.5,32.1,30.31,NNW,338,1.1,1.1,69,0.00,CLR,SCT,0.00,0.0,WeatherDisplay:10.37,2016-02-10 13:21:00,
2016-02-10 05:26:00,41.5,31.4,30.32,NNW,338,1.1,1.1,67,0.00,CLR,SCT,0.00,0.0,WeatherDisplay:10.37,2016-02-10 13:26:00,
2016-02-10 05:31:00,41.5,31.0,30.32,NNW,338,2.3,2.3,66,0.00,CLR,SCT,0.00,0.0,WeatherDisplay:10.37,2016-02-10 13:31:00,
2016-02-10 05:36:00,41.6,31.1,30.32,NNW,342,3.5,3.5,66,0.00,CLR,SCT,0.00,0.0,WeatherDisplay:10.37,2016-02-10 13:36:00,
2016-02-10 05:41:00,41.6,30.7,30.32,NW,321,2.3,2.3,65,0.00,CLR,SCT,0.00,0.0,WeatherDisplay:10.37,2016-02-10 13:41:00,
2016-02-10 05:46:00,41.6,31.4,30.32,NW,325,2.3,2.3,67,0.00,CLR,SCT,0.00,0.0,WeatherDisplay:10.37,2016-02-10 13:46:00,
2016-02-10 05:51:00,41.4,31.3,30.32,NW,325,1.1,1.1,67,0.00,CLR,SCT,0.00,0.0,WeatherDisplay:10.37,2016-02-10 13:51:00,
2016-02-10 05:56:00,41.2,30.7,30.32,NW,325,1.1,1.1,66,0.00,CLR,SCT,0.00,0.0,WeatherDisplay:10.37,2016-02-10 13:56:00,
2016-02-10 06:01:00,41.2,30.7,30.33,NNW,338,1.1,1.1,66,0.00,CLR,SCT,0.00,0.0,WeatherDisplay:10.37,2016-02-10 14:01:00,
2016-02-10 06:06:00,41.2,30.7,30.33,NNW,338,1.1,1.1,66,0.00,CLR,SCT,0.00,0.0,WeatherDisplay:10.37,2016-02-10 14:06:00,
2016-02-10 06:11:00,41.3,30.4,30.33,NNW,338,1.1,1.1,65,0.00,CLR,SCT,0.00,0.0,WeatherDisplay:10.37,2016-02-10 14:11:00,
2016-02-10 06:16:00,41.4,30.9,30.33,NW,318,1.1,1.1,66,0.00,CLR,SCT,0.00,0.0,WeatherDisplay:10.37,2016-02-10 14:16:00,
2016-02-10 06:21:00,41.4,30.5,30.33,NW,320,1.1,1.1,65,0.00,CLR,SCT,0.00,0.0,WeatherDisplay:10.37,2016-02-10 14:21:00,
2016-02-10 06:26:00,41.5,30.2,30.33,NW,323,2.3,2.3,64,0.00,CLR,SCT,0.00,0.0,WeatherDisplay:10.37,2016-02-10 14:26:00,
2016-02-10 06:36:00,41.4,30.1,30.34,NNW,327,3.5,3.5,64,0.00,CLR,SCT,0.00,0.0,WeatherDisplay:10.37,2016-02-10 14:36:00,
2016-02-10 06:41:00,41.3,30.0,30.34,NNW,327,0.0,0.0,64,0.00,CLR,SCT,0.00,0.0,WeatherDisplay:10.37,2016-02-10 14:41:00,
2016-02-10 06:46:00,41.2,30.7,30.34,NNW,327,0.0,0.0,66,0.00,CLR,SCT,0.00,0.0,WeatherDisplay:10.37,2016-02-10 14:46:00,
2016-02-10 06:51:00,41.1,30.2,30.34,NNW,327,1.1,0.0,65,0.00,CLR,SCT,0.00,0.0,WeatherDisplay:10.37,2016-02-10 14:51:00,
2016-02-10 06:56:00,41.2,30.7,30.34,NNW,327,0.0,0.0,66,0.00,CLR,SCT,0.00,0.0,WeatherDisplay:10.37,2016-02-10 14:56:00,
2016-02-10 07:01:00,41.2,30.7,30.34,NNW,327,0.0,0.0,66,0.00,CLR,SCT,0.00,0.0,WeatherDisplay:10.37,2016-02-10 15:01:00,
2016-02-10 07:06:00,41.2,30.7,30.34,NNW,327,2.3,2.3,66,0.00,CLR,SCT,0.00,0.0,WeatherDisplay:10.37,2016-02-10 15:06:00,
2016-02-10 07:11:00,41.2,30.3,30.34,NNW,327,2.3,2.3,65,0.00,CLR,SCT,0.00,0.0,WeatherDisplay:10.37,2016-02-10 15:11:00,
2016-02-10 07:16:00,41.1,30.6,30.34,NNW,327,2.3,2.3,66,0.00,CLR,SCT,0.00,0.0,WeatherDisplay:10.37,2016-02-10 15:16:00,
2016-02-10 07:26:00,40.8,30.7,30.35,NNW,327,1.1,1.1,67,0.00,CLR,SCT,0.00,0.0,WeatherDisplay:10.37,2016-02-10 15:26:00,
2016-02-10 07:31:00,40.8,30.3,30.35,NNW,327,0.0,0.1,66,0.00,CLR,SCT,0.00,0.0,WeatherDisplay:10.37,2016-02-10 15:31:00,
2016-02-10 07:36:00,40.9,30.4,30.35,NW,304,1.1,1.1,66,0.00,CLR,SCT,0.00,0.0,WeatherDisplay:10.37,2016-02-10 15:36:00,
2016-02-10 07:41:00,41.1,30.6,30.35,NW,304,1.1,0.0,66,0.00,CLR,SCT,0.00,0.0,WeatherDisplay:10.37,2016-02-10 15:41:00,
2016-02-10 07:46:00,41.3,30.8,30.36,NW,304,1.1,0.0,66,0.00,CLR,SCT,0.00,0.0,WeatherDisplay:10.37,2016-02-10 15:46:00,
2016-02-10 07:51:00,41.4,30.9,30.36,NW,304,1.1,0.0,66,0.00,CLR,SCT,0.00,0.0,WeatherDisplay:10.37,2016-02-10 15:51:00,
2016-02-10 07:56:00,41.5,31.0,30.36,NW,304,2.3,2.3,66,0.00,CLR,SCT,0.00,0.0,WeatherDisplay:10.37,2016-02-10 15:56:00,
2016-02-10 08:01:00,41.5,31.0,30.36,NW,304,2.0,2.0,66,0.00,CLR,SCT,0.00,0.0,WeatherDisplay:10.37,2016-02-10 16:01:00,
2016-02-10 08:06:00,41.5,31.0,30.36,NW,310,3.5,3.5,66,0.00,CLR,SCT,0.00,0.0,WeatherDisplay:10.37,2016-02-10 16:06:00,
2016-02-10 08:11:00,41.5,31.0,30.36,NW,311,2.3,2.3,66,0.00,CLR,SCT,0.00,0.0,WeatherDisplay:10.37,2016-02-10 16:11:00,
2016-02-10 08:21:00,41.4,31.6,30.36,NW,312,2.3,2.3,68,0.00,CLR,SCT,0.00,0.0,WeatherDisplay:10.37,2016-02-10 16:21:00,
2016-02-10 08:26:00,41.4,32.0,30.36,NW,314,3.5,3.5,69,0.00,CLR,SCT,0.00,0.0,WeatherDisplay:10.37,2016-02-10 16:26:00,
2016-02-10 08:31:00,41.5,32.4,30.36,NW,314,2.3,2.3,70,0.00,CLR,SCT,0.00,0.0,WeatherDisplay:10.37,2016-02-10 16:31:00,
2016-02-10 08:36:00,41.6,33.2,30.36,NW,314,2.0,2.0,72,0.00,CLR,SCT,0.00,0.0,WeatherDisplay:10.37,2016-02-10 16:36:00,